Time;durP1;ratioP1;P1;durP2;ratioP2;P2;SDS_P1;SDS_P2;PMS_P1;PMS_P2;Temp;Humidity;BMP_temperature;BMP_pressure;BME280_temperature;BME280_humidity;BME280_pressure;Samples;Min_cycle;Max_cycle;Signal;HPM_P1;HPM_P2
2021/11/08 00:01:37;;;;;;;9.20;8.17;;;7.30;99.90;;;;;;5050799;28;20195;-65
2021/11/08 00:04:04;;;;;;;11.57;9.00;;;7.40;99.90;;;;;;5033596;28;20179;-67
2021/11/08 00:06:31;;;;;;;11.37;8.43;;;7.40;99.90;;;;;;5033599;28;20279;-66
2021/11/08 00:08:56;;;;;;;10.53;7.90;;;7.50;99.90;;;;;;5053314;28;20186;-65
2021/11/08 00:11:26;;;;;;;9.23;8.30;;;7.60;99.90;;;;;;5036458;28;20183;-67
2021/11/08 00:13:53;;;;;;;10.63;8.67;;;7.60;99.90;;;;;;5033353;28;20657;-66
2021/11/08 00:21:21;;;;;;;10.60;8.00;;;7.80;99.90;;;;;;5033248;28;20167;-66
2021/11/08 00:23:46;;;;;;;13.70;9.67;;;7.80;99.90;;;;;;5047057;28;20582;-66
2021/11/08 00:26:12;;;;;;;8.00;7.20;;;7.90;99.90;;;;;;5053038;28;20198;-65
2021/11/08 00:28:38;;;;;;;11.57;8.77;;;7.90;99.90;;;;;;5040702;28;20229;-65
2021/11/08 00:31:04;;;;;;;11.97;8.30;;;7.80;99.90;;;;;;5032584;28;20184;-67
2021/11/08 00:33:29;;;;;;;15.20;9.10;;;7.90;99.90;;;;;;5043127;28;20166;-67
2021/11/08 00:35:58;;;;;;;12.33;8.90;;;7.90;99.90;;;;;;5052923;28;20715;-66
2021/11/08 00:38:24;;;;;;;9.20;8.33;;;7.80;99.90;;;;;;5044051;28;20229;-67
2021/11/08 00:40:50;;;;;;;16.93;7.87;;;7.80;99.90;;;;;;5032648;28;20233;-67
2021/11/08 00:43:18;;;;;;;12.83;8.87;;;7.80;99.90;;;;;;5039440;28;20174;-66
2021/11/08 00:45:44;;;;;;;9.03;8.30;;;7.70;99.90;;;;;;5053357;28;20206;-66
2021/11/08 00:48:10;;;;;;;16.03;8.10;;;7.70;99.90;;;;;;5047051;28;20262;-66
2021/11/08 00:50:36;;;;;;;10.00;8.70;;;7.60;99.90;;;;;;5032577;28;20172;-66
2021/11/08 00:53:05;;;;;;;8.83;8.00;;;7.60;99.90;;;;;;5036279;28;20171;-67
2021/11/08 00:55:31;;;;;;;18.27;8.30;;;7.50;99.90;;;;;;5052369;28;20202;-66
2021/11/08 00:57:59;;;;;;;14.73;8.00;;;7.50;99.90;;;;;;5050230;28;20662;-67
2021/11/08 01:00:28;;;;;;;9.47;8.53;;;7.50;99.90;;;;;;5042024;28;20179;-66
2021/11/08 01:02:54;;;;;;;11.47;9.27;;;7.40;99.90;;;;;;5048726;28;20175;-67
2021/11/08 01:05:20;;;;;;;9.97;8.40;;;7.40;99.90;;;;;;5052461;28;20224;-66
2021/11/08 01:07:46;;;;;;;9.77;8.70;;;7.40;99.90;;;;;;5049509;28;20187;-67
2021/11/08 01:10:16;;;;;;;12.37;8.97;;;7.30;99.90;;;;;;5032127;28;20262;-66
2021/11/08 01:12:42;;;;;;;12.80;9.00;;;7.30;99.90;;;;;;5047978;28;20225;-67
2021/11/08 01:15:09;;;;;;;9.43;8.03;;;7.20;99.90;;;;;;5051982;28;20591;-66
2021/11/08 01:17:35;;;;;;;13.80;8.03;;;7.20;99.90;;;;;;5037315;28;20241;-67
2021/11/08 01:20:02;;;;;;;14.87;8.57;;;7.20;99.90;;;;;;5031795;28;20175;-66
2021/11/08 01:22:28;;;;;;;9.70;8.77;;;7.10;99.90;;;;;;5015777;28;20226;-67
2021/11/08 01:24:55;;;;;;;10.57;8.00;;;7.10;99.90;;;;;;5032210;28;20172;-66
2021/11/08 01:27:33;;;;;;;10.87;8.47;;;7.10;99.90;;;;;;5043034;28;20654;-65
2021/11/08 01:30:02;;;;;;;12.83;10.20;;;7.10;99.90;;;;;;5051730;28;20167;-66
2021/11/08 01:32:27;;;;;;;9.73;8.90;;;7.00;99.90;;;;;;5040295;28;20186;-66
2021/11/08 01:34:53;;;;;;;14.67;8.97;;;7.10;99.90;;;;;;5032076;28;20168;-66
2021/11/08 01:37:20;;;;;;;14.33;9.73;;;7.10;99.90;;;;;;5041155;28;20799;-67
2021/11/08 01:39:46;;;;;;;8.83;8.17;;;7.20;99.90;;;;;;5045353;28;20295;-66
2021/11/08 01:42:15;;;;;;;9.30;8.43;;;7.30;99.90;;;;;;5031701;28;20378;-66
2021/11/08 01:44:42;;;;;;;9.40;7.87;;;7.30;99.90;;;;;;5036210;28;20702;-66
2021/11/08 01:47:09;;;;;;;8.50;7.73;;;7.30;99.90;;;;;;5051360;28;20281;-66
2021/11/08 01:49:36;;;;;;;9.73;8.73;;;7.40;99.90;;;;;;5048174;28;20205;-66
2021/11/08 01:52:06;;;;;;;11.00;9.90;;;7.40;99.90;;;;;;5031609;28;20171;-65
2021/11/08 01:54:32;;;;;;;10.77;9.10;;;7.50;99.90;;;;;;5033327;28;20199;-66
2021/11/08 01:56:58;;;;;;;11.53;9.07;;;7.50;99.90;;;;;;5051005;28;20210;-67
2021/11/08 01:59:24;;;;;;;12.97;9.23;;;7.50;99.90;;;;;;5050811;28;20178;-66
2021/11/08 02:01:51;;;;;;;15.57;9.30;;;7.60;99.90;;;;;;5040352;28;20190;-66
2021/11/08 02:04:18;;;;;;;15.77;10.23;;;7.60;99.90;;;;;;5051334;28;20292;-66
2021/11/08 02:06:46;;;;;;;15.83;10.40;;;7.60;99.90;;;;;;5032531;28;20230;-66
2021/11/08 02:09:12;;;;;;;13.23;10.90;;;7.60;99.90;;;;;;5046246;28;20178;-66
2021/11/08 02:11:38;;;;;;;11.40;8.97;;;7.60;99.90;;;;;;5051336;28;20541;-66
2021/11/08 02:14:04;;;;;;;13.70;9.50;;;7.70;99.90;;;;;;5037565;28;20237;-66
2021/11/08 02:16:30;;;;;;;11.47;8.77;;;7.70;99.90;;;;;;5031344;28;20207;-66
2021/11/08 02:18:57;;;;;;;11.80;8.23;;;7.80;99.90;;;;;;5032222;28;20225;-66
2021/11/08 02:21:24;;;;;;;15.40;9.00;;;7.80;99.90;;;;;;5031163;28;20171;-66
2021/11/08 02:23:51;;;;;;;13.97;9.70;;;7.80;99.90;;;;;;5042415;28;20167;-66
2021/11/08 02:26:17;;;;;;;16.33;9.33;;;7.90;99.90;;;;;;5055259;28;20198;-66
2021/11/08 02:28:46;;;;;;;12.17;8.80;;;7.90;99.90;;;;;;5046136;28;20186;-66
2021/11/08 02:31:19;;;;;;;15.53;8.30;;;8.00;99.90;;;;;;5034895;28;20314;-67
2021/11/08 02:33:46;;;;;;;11.63;8.13;;;8.00;99.90;;;;;;5042770;28;20680;-66
2021/11/08 02:36:12;;;;;;;12.83;8.50;;;8.00;99.90;;;;;;5050100;28;20750;-66
2021/11/08 02:38:43;;;;;;;8.70;7.73;;;8.00;99.90;;;;;;5035355;28;20253;-67
2021/11/08 02:41:09;;;;;;;13.27;8.87;;;8.00;99.90;;;;;;5020359;28;20179;-67
2021/11/08 02:43:37;;;;;;;13.53;8.00;;;8.10;99.90;;;;;;5055007;28;20656;-66
2021/11/08 02:46:08;;;;;;;9.77;7.70;;;8.10;99.90;;;;;;5052321;28;20190;-67
2021/11/08 02:48:36;;;;;;;14.40;8.63;;;8.10;99.90;;;;;;5034932;28;20175;-66
2021/11/08 02:51:11;;;;;;;14.43;9.10;;;8.10;99.90;;;;;;5035906;28;20578;-65
2021/11/08 02:53:38;;;;;;;9.27;8.37;;;8.10;99.90;;;;;;5055037;28;20171;-66
2021/11/08 02:56:06;;;;;;;10.10;8.77;;;8.10;99.90;;;;;;5052761;28;20221;-66
2021/11/08 02:58:32;;;;;;;9.97;8.40;;;8.10;99.90;;;;;;5054797;28;20174;-66
2021/11/08 03:00:58;;;;;;;12.17;8.70;;;8.20;99.90;;;;;;5046845;28;20210;-66
2021/11/08 03:03:33;;;;;;;12.97;8.33;;;8.20;99.90;;;;;;5034682;28;20215;-66
2021/11/08 03:06:02;;;;;;;11.90;8.07;;;8.20;99.90;;;;;;5051086;28;20240;-67
2021/11/08 03:08:27;;;;;;;12.17;8.43;;;8.10;99.90;;;;;;5054625;28;20185;-67
2021/11/08 03:10:56;;;;;;;14.80;8.50;;;8.10;99.90;;;;;;5038468;28;20183;-67
2021/11/08 03:13:21;;;;;;;11.60;10.40;;;8.10;99.90;;;;;;5034672;28;20168;-69
2021/11/08 03:18:40;;;;;;;10.40;8.83;;;8.10;99.90;;;;;;5055864;28;20171;-71
2021/11/08 03:21:01;;;;;;;9.60;8.63;;;8.10;99.90;;;;;;5038855;28;20191;-69
2021/11/08 03:23:29;;;;;;;13.47;8.73;;;8.10;99.90;;;;;;5035545;28;20186;-69
2021/11/08 03:26:14;;;;;;;17.43;8.67;;;8.20;99.90;;;;;;5049080;28;20206;-71
2021/11/08 03:28:40;;;;;;;11.17;8.50;;;8.20;99.90;;;;;;5055752;28;20174;-71
2021/11/08 03:31:11;;;;;;;10.03;9.07;;;8.10;99.90;;;;;;5039697;28;20184;-71
2021/11/08 03:33:38;;;;;;;9.43;8.53;;;8.20;99.90;;;;;;5046068;28;20267;-68
2021/11/08 03:36:05;;;;;;;8.73;7.83;;;8.20;99.90;;;;;;5054957;28;20285;-72
2021/11/08 03:38:36;;;;;;;9.17;8.27;;;8.20;99.90;;;;;;5048595;28;20253;-71
2021/11/08 03:41:03;;;;;;;10.17;8.17;;;8.20;99.90;;;;;;5048926;28;20329;-69
2021/11/08 03:43:28;;;;;;;9.60;8.43;;;8.20;99.90;;;;;;5055122;28;20175;-69
2021/11/08 03:45:54;;;;;;;14.97;9.00;;;8.20;99.90;;;;;;5054099;28;20202;-69
2021/11/08 03:48:20;;;;;;;14.97;8.57;;;8.20;99.90;;;;;;5054886;28;20234;-69
2021/11/08 03:50:48;;;;;;;11.53;8.70;;;8.20;99.90;;;;;;5048413;28;20210;-68
2021/11/08 03:53:14;;;;;;;17.30;9.07;;;8.20;99.90;;;;;;5034864;28;20171;-68
2021/11/08 03:58:08;;;;;;;10.57;8.37;;;8.20;99.90;;;;;;5059979;22;20234;-72
2021/11/08 04:00:34;;;;;;;9.10;8.30;;;8.20;99.90;;;;;;5054349;28;20584;-69
2021/11/08 04:03:01;;;;;;;10.37;8.40;;;8.20;99.90;;;;;;5054737;28;20186;-70
2021/11/08 04:05:30;;;;;;;9.40;8.50;;;8.10;99.90;;;;;;5054186;28;20539;-71
2021/11/08 04:07:56;;;;;;;13.13;8.50;;;8.20;99.90;;;;;;5036703;28;20564;-69
2021/11/08 04:10:23;;;;;;;13.83;9.63;;;8.20;99.90;;;;;;5054974;28;20695;-70
2021/11/08 04:12:50;;;;;;;15.53;8.60;;;8.20;99.90;;;;;;5072484;28;20300;-70
2021/11/08 04:15:18;;;;;;;12.33;9.00;;;8.10;99.90;;;;;;5054336;28;20166;-70
2021/11/08 04:17:45;;;;;;;15.63;9.97;;;8.10;99.90;;;;;;5073870;28;20683;-68
2021/11/08 04:20:16;;;;;;;11.67;9.03;;;8.20;99.90;;;;;;5056332;28;20331;-69
2021/11/08 04:22:42;;;;;;;8.97;8.17;;;8.20;99.90;;;;;;5055802;28;20183;-68
2021/11/08 04:25:08;;;;;;;12.83;8.30;;;8.20;99.90;;;;;;5054095;28;20171;-67
2021/11/08 04:27:37;;;;;;;14.23;8.83;;;8.20;99.90;;;;;;5071358;28;20194;-70
2021/11/08 04:30:06;;;;;;;10.97;9.40;;;8.20;99.90;;;;;;5061486;28;20990;-69
2021/11/08 04:32:36;;;;;;;19.00;9.53;;;8.20;99.90;;;;;;5054365;28;20658;-69
2021/11/08 04:35:09;;;;;;;12.23;9.27;;;8.20;99.90;;;;;;5065672;28;20218;-71
2021/11/08 04:40:27;;;;;;;11.00;8.90;;;8.10;99.90;;;;;;5060297;28;20547;-69
2021/11/08 04:43:00;;;;;;;14.97;9.20;;;8.10;99.90;;;;;;5054018;28;20217;-73
2021/11/08 04:54:14;;;;;;;13.90;7.97;;;8.20;99.90;;;;;;5039225;28;20187;-65
2021/11/08 04:56:55;;;;;;;9.23;8.43;;;8.10;99.90;;;;;;5031910;28;20223;-65
2021/11/08 05:31:40;;;;;;;14.67;10.07;;;8.20;99.90;;;;;;5072015;28;20170;-65
2021/11/08 05:34:06;;;;;;;11.67;9.50;;;8.30;99.90;;;;;;5070877;28;20166;-65
2021/11/08 05:36:32;;;;;;;19.07;10.40;;;8.20;99.90;;;;;;5051728;28;20210;-65
2021/11/08 05:38:58;;;;;;;11.77;10.03;;;8.20;99.90;;;;;;5051481;28;20171;-65
2021/11/08 05:41:23;;;;;;;11.30;10.00;;;8.30;99.90;;;;;;5051932;28;20175;-65
2021/11/08 05:43:49;;;;;;;13.90;9.90;;;8.20;99.90;;;;;;5052083;28;20198;-65
2021/11/08 05:46:15;;;;;;;13.43;10.37;;;8.30;99.90;;;;;;5051665;28;20194;-65
2021/11/08 05:48:41;;;;;;;13.23;10.83;;;8.30;99.90;;;;;;5051627;28;20171;-65
2021/11/08 05:51:08;;;;;;;12.07;8.97;;;8.20;99.90;;;;;;5052964;28;20269;-65
2021/11/08 05:53:34;;;;;;;10.53;9.53;;;8.20;99.90;;;;;;5071794;28;20543;-65
2021/11/08 06:50:39;;;;;;;11.83;9.30;;;8.30;99.90;;;;;;5050484;28;20178;-65
2021/11/08 06:53:07;;;;;;;10.57;9.53;;;8.30;99.90;;;;;;5061725;28;20245;-65
2021/11/08 06:55:34;;;;;;;16.67;9.33;;;8.30;99.90;;;;;;5050777;28;20248;-65
2021/11/08 06:58:22;;;;;;;12.40;8.70;;;8.30;99.90;;;;;;5050495;28;20297;-65
2021/11/08 07:00:46;;;;;;;14.93;9.10;;;8.30;99.90;;;;;;5050308;28;20269;-65
2021/11/08 07:03:13;;;;;;;14.43;8.93;;;8.30;99.90;;;;;;5050572;28;20676;-65
2021/11/08 07:05:39;;;;;;;12.17;9.00;;;8.30;99.90;;;;;;5050756;28;20182;-65
2021/11/08 07:08:05;;;;;;;11.90;9.13;;;8.30;99.90;;;;;;5070552;28;20202;-64
2021/11/08 07:10:31;;;;;;;12.53;9.20;;;8.30;99.90;;;;;;5059755;28;20178;-65
2021/11/08 07:12:57;;;;;;;13.77;9.63;;;8.30;99.90;;;;;;5062192;28;20221;-64
2021/11/08 07:15:23;;;;;;;11.53;9.40;;;8.40;99.90;;;;;;5054163;28;20182;-64
2021/11/08 07:17:50;;;;;;;13.43;10.27;;;8.40;99.90;;;;;;5054054;28;20278;-64
2021/11/08 07:20:18;;;;;;;13.23;10.27;;;8.40;99.90;;;;;;5053974;28;20199;-64
2021/11/08 07:22:45;;;;;;;13.87;10.90;;;8.40;99.90;;;;;;5054277;28;20258;-64
2021/11/08 07:25:11;;;;;;;14.80;10.27;;;8.40;99.90;;;;;;5054226;28;20182;-64
2021/11/08 07:27:37;;;;;;;17.23;10.57;;;8.50;99.90;;;;;;5054062;28;20191;-64
2021/11/08 07:30:04;;;;;;;14.87;10.40;;;8.60;99.90;;;;;;5062586;28;20186;-64
2021/11/08 07:32:30;;;;;;;12.20;9.93;;;8.60;99.90;;;;;;5067367;28;20183;-64
2021/11/08 07:34:56;;;;;;;9.73;8.83;;;8.60;99.90;;;;;;5052701;28;20186;-64
2021/11/08 07:37:23;;;;;;;16.13;9.53;;;8.60;99.90;;;;;;5058234;28;20210;-64
2021/11/08 07:39:48;;;;;;;19.77;11.47;;;8.60;99.90;;;;;;5073629;28;20172;-64
2021/11/08 07:42:14;;;;;;;19.33;11.00;;;8.70;99.90;;;;;;5072236;28;20186;-64
2021/11/08 07:44:40;;;;;;;15.40;10.00;;;8.80;99.90;;;;;;5048854;28;20182;-64
2021/11/08 07:47:06;;;;;;;20.37;10.40;;;8.80;99.90;;;;;;5033596;28;20330;-64
2021/11/08 07:49:32;;;;;;;17.47;10.17;;;8.90;99.90;;;;;;5046978;28;20179;-64
2021/11/08 07:51:58;;;;;;;16.30;11.53;;;8.80;99.90;;;;;;5053536;28;20653;-64
2021/11/08 07:54:25;;;;;;;13.93;9.67;;;8.80;99.90;;;;;;5053650;28;20207;-64
2021/11/08 07:56:50;;;;;;;16.57;10.30;;;8.90;99.90;;;;;;5053407;28;20280;-64
2021/11/08 07:59:17;;;;;;;13.07;10.57;;;8.90;99.90;;;;;;5053115;28;20171;-64
2021/11/08 08:01:44;;;;;;;13.13;9.10;;;8.90;99.90;;;;;;5069132;28;20186;-64
2021/11/08 08:04:10;;;;;;;13.90;9.53;;;8.90;99.90;;;;;;5073321;28;20179;-64
2021/11/08 08:06:36;;;;;;;14.43;9.63;;;8.90;99.90;;;;;;5058653;28;20214;-64
2021/11/08 08:09:03;;;;;;;13.67;9.80;;;8.90;99.90;;;;;;5053312;28;20179;-64
2021/11/08 08:11:29;;;;;;;12.90;10.30;;;8.90;99.90;;;;;;5065872;28;20218;-64
2021/11/08 08:13:54;;;;;;;13.83;9.93;;;9.00;99.90;;;;;;5073246;28;20237;-64
2021/11/08 08:16:20;;;;;;;12.93;9.13;;;9.00;99.90;;;;;;5061612;28;20454;-64
2021/11/08 08:18:48;;;;;;;11.77;9.83;;;8.90;99.90;;;;;;5053227;28;20616;-64
2021/11/08 08:21:15;;;;;;;10.33;9.33;;;9.00;99.90;;;;;;5055494;28;20267;-64
2021/11/08 08:23:42;;;;;;;11.10;9.47;;;9.00;99.90;;;;;;5052976;28;20207;-64
2021/11/08 08:26:08;;;;;;;11.00;9.90;;;9.00;99.90;;;;;;5060929;28;20220;-64
2021/11/08 08:28:34;;;;;;;12.80;9.60;;;9.00;99.90;;;;;;5068616;28;20237;-66
2021/11/08 08:31:00;;;;;;;12.30;9.83;;;9.00;99.90;;;;;;5052546;28;20174;-64
2021/11/08 08:33:27;;;;;;;11.60;10.07;;;9.00;99.90;;;;;;5054112;28;20178;-64
2021/11/08 08:35:53;;;;;;;12.23;10.17;;;9.00;99.90;;;;;;5072577;28;20763;-64
2021/11/08 08:38:19;;;;;;;11.97;10.67;;;9.20;99.90;;;;;;5071832;28;20174;-64
2021/11/08 08:40:47;;;;;;;17.27;10.03;;;9.20;99.90;;;;;;5034605;28;20296;-64
2021/11/08 08:43:14;;;;;;;12.50;10.03;;;9.20;99.90;;;;;;5052676;28;20548;-67
2021/11/08 08:45:40;;;;;;;24.90;10.97;;;9.20;99.90;;;;;;5052237;28;20190;-66
2021/11/08 08:48:07;;;;;;;14.10;9.93;;;9.20;99.90;;;;;;5052332;28;20605;-66
2021/11/08 08:50:34;;;;;;;12.23;10.47;;;9.20;99.90;;;;;;5070474;28;20547;-66
2021/11/08 08:53:00;;;;;;;12.37;11.10;;;9.10;99.90;;;;;;5072446;28;20257;-66
2021/11/08 08:55:25;;;;;;;15.53;9.40;;;9.10;99.90;;;;;;5057734;28;20217;-66
2021/11/08 08:57:52;;;;;;;15.63;12.17;;;9.20;99.90;;;;;;5067267;28;20210;-64
2021/11/08 09:00:20;;;;;;;15.23;11.63;;;9.20;99.90;;;;;;5051971;28;20179;-64
2021/11/08 09:02:48;;;;;;;18.17;10.40;;;9.20;99.90;;;;;;5055520;28;20202;-66
2021/11/08 09:05:14;;;;;;;18.83;9.73;;;9.20;99.90;;;;;;5072252;28;20227;-66
2021/11/08 09:07:40;;;;;;;17.10;10.77;;;9.30;99.90;;;;;;5069624;28;20190;-64
2021/11/08 09:10:06;;;;;;;13.53;9.90;;;9.30;99.90;;;;;;5051725;28;20263;-66
2021/11/08 09:12:32;;;;;;;18.00;10.80;;;9.40;99.90;;;;;;5052388;28;20232;-66
2021/11/08 09:14:58;;;;;;;13.27;10.43;;;9.50;99.90;;;;;;5072039;28;20190;-66
2021/11/08 09:17:23;;;;;;;14.27;10.17;;;9.60;99.90;;;;;;5071678;28;20209;-66
2021/11/08 09:19:49;;;;;;;13.10;9.67;;;9.70;99.90;;;;;;5052821;28;20212;-66
2021/11/08 09:22:15;;;;;;;21.10;9.80;;;9.80;99.90;;;;;;5051835;28;20537;-66
2021/11/08 09:24:42;;;;;;;18.13;10.30;;;9.90;99.90;;;;;;5051061;28;20174;-64
2021/11/08 09:27:08;;;;;;;12.23;9.27;;;9.90;99.90;;;;;;5071747;28;20305;-66
2021/11/08 09:29:34;;;;;;;15.87;10.17;;;10.00;99.90;;;;;;5055685;28;20206;-66
2021/11/08 09:32:00;;;;;;;16.00;9.23;;;10.20;99.90;;;;;;5051640;28;20186;-66
2021/11/08 09:34:26;;;;;;;16.23;9.17;;;10.30;99.90;;;;;;5065463;28;20583;-65
2021/11/08 09:36:54;;;;;;;16.97;10.00;;;10.50;99.90;;;;;;5071583;28;20585;-67
2021/11/08 09:39:24;;;;;;;12.47;9.47;;;10.50;99.90;;;;;;5058444;28;20209;-64
2021/11/08 09:41:53;;;;;;;12.90;9.83;;;10.60;99.90;;;;;;5051692;28;20258;-64
2021/11/08 09:44:21;;;;;;;9.00;8.10;;;10.60;99.90;;;;;;5063220;28;20542;-64
2021/11/08 09:46:52;;;;;;;15.17;9.30;;;10.50;99.90;;;;;;5053665;28;20236;-67
2021/11/08 09:49:17;;;;;;;16.00;9.90;;;10.50;99.90;;;;;;5059946;28;20186;-64
2021/11/08 09:51:46;;;;;;;14.77;9.33;;;10.30;99.90;;;;;;5058133;28;20209;-64
2021/11/08 09:54:13;;;;;;;17.50;10.40;;;10.20;99.90;;;;;;5053485;28;20193;-64
2021/11/08 09:56:41;;;;;;;14.47;9.37;;;10.10;99.90;;;;;;5089381;22;20592;-66
2021/11/08 09:59:07;;;;;;;12.27;8.83;;;10.10;99.90;;;;;;5051060;28;20205;-66
2021/11/08 10:01:37;;;;;;;10.93;8.83;;;10.20;99.90;;;;;;5051041;28;20178;-66
2021/11/08 10:04:04;;;;;;;22.83;9.10;;;10.30;99.90;;;;;;5051315;28;20206;-65
2021/11/08 10:06:32;;;;;;;15.23;9.27;;;10.40;99.90;;;;;;5051190;28;20195;-66
2021/11/08 10:08:58;;;;;;;12.93;9.67;;;10.50;99.90;;;;;;5033172;28;20210;-69
2021/11/08 10:11:24;;;;;;;14.67;10.10;;;10.60;99.90;;;;;;5033127;28;20588;-66
2021/11/08 10:13:52;;;;;;;13.00;8.93;;;10.70;99.90;;;;;;5050419;28;20186;-67
2021/11/08 10:16:30;;;;;;;12.27;8.53;;;10.90;99.90;;;;;;5050875;28;20237;-66
2021/11/08 10:18:58;;;;;;;12.40;9.10;;;11.00;99.90;;;;;;5051222;28;20177;-68
2021/11/08 10:21:34;;;;;;;12.00;8.87;;;11.20;99.90;;;;;;5050823;28;20209;-66
2021/11/08 10:24:03;;;;;;;12.60;8.90;;;11.40;99.90;;;;;;5051372;28;20624;-66
2021/11/08 10:26:33;;;;;;;11.13;8.60;;;11.40;99.90;;;;;;5050680;28;20211;-65
2021/11/08 10:29:07;;;;;;;15.87;8.43;;;11.60;99.90;;;;;;5050793;28;20525;-66
2021/11/08 10:31:39;;;;;;;11.33;8.37;;;11.80;99.90;;;;;;5050821;28;20220;-65
2021/11/08 10:34:07;;;;;;;11.60;8.20;;;12.00;99.90;;;;;;5051030;28;20175;-65
2021/11/08 10:36:33;;;;;;;12.63;9.03;;;12.00;99.90;;;;;;5050021;28;20293;-65
2021/11/08 10:39:00;;;;;;;10.53;8.00;;;12.00;99.90;;;;;;5050711;28;20253;-66
2021/11/08 10:41:32;;;;;;;10.40;7.90;;;12.00;99.90;;;;;;5032992;28;20179;-66
2021/11/08 10:44:05;;;;;;;9.00;8.03;;;12.00;99.90;;;;;;5051064;28;20194;-66
2021/11/08 10:46:37;;;;;;;9.50;8.03;;;11.80;99.90;;;;;;5054543;28;20191;-65
2021/11/08 10:49:10;;;;;;;13.90;8.53;;;11.80;99.90;;;;;;5054442;28;20183;-65
2021/11/08 10:51:37;;;;;;;14.80;8.77;;;11.80;99.90;;;;;;5055000;28;20171;-64
2021/11/08 10:54:10;;;;;;;12.43;10.20;;;11.70;99.90;;;;;;5054456;28;20182;-66
2021/11/08 10:56:38;;;;;;;23.43;14.60;;;11.80;99.90;;;;;;5054505;28;20206;-64
2021/11/08 10:59:16;;;;;;;13.13;8.70;;;12.10;99.90;;;;;;5054364;28;20170;-65
2021/11/08 11:01:41;;;;;;;12.77;8.47;;;12.30;99.90;;;;;;5054428;28;20182;-65
2021/11/08 11:04:07;;;;;;;14.00;9.00;;;12.20;99.90;;;;;;5036594;28;20175;-66
2021/11/08 11:06:38;;;;;;;10.20;8.67;;;12.30;99.90;;;;;;5054535;28;20186;-65
2021/11/08 11:09:19;;;;;;;13.27;9.27;;;12.40;99.90;;;;;;5034499;28;20234;-65
2021/11/08 11:11:47;;;;;;;11.77;8.90;;;12.50;99.90;;;;;;5035616;28;20178;-64
2021/11/08 11:14:14;;;;;;;14.70;9.47;;;12.50;99.90;;;;;;5054400;28;20212;-67
2021/11/08 11:16:45;;;;;;;13.83;8.23;;;12.50;99.90;;;;;;5054388;28;20202;-65
2021/11/08 11:19:14;;;;;;;14.23;9.07;;;12.50;99.90;;;;;;5040161;28;20547;-66
2021/11/08 11:22:03;;;;;;;9.97;8.60;;;12.50;99.90;;;;;;5054150;28;20258;-65
2021/11/08 11:24:43;;;;;;;13.10;8.87;;;12.60;99.90;;;;;;5034327;28;20203;-65
2021/11/08 11:27:28;;;;;;;15.50;9.03;;;12.70;99.90;;;;;;5036414;28;20632;-65
2021/11/08 11:30:06;;;;;;;11.70;8.03;;;12.80;99.90;;;;;;5053833;28;20175;-66
2021/11/08 11:32:32;;;;;;;8.93;8.03;;;12.80;99.90;;;;;;5036037;28;20179;-67
2021/11/08 11:34:58;;;;;;;13.43;8.03;;;12.90;99.90;;;;;;5053263;28;20171;-66
2021/11/08 11:37:29;;;;;;;16.07;8.30;;;12.90;99.90;;;;;;5053482;28;20205;-67
2021/11/08 11:40:12;;;;;;;14.83;9.17;;;13.10;99.90;;;;;;5053670;28;20175;-65
2021/11/08 11:42:50;;;;;;;11.17;8.13;;;13.20;99.90;;;;;;5034138;28;20550;-66
2021/11/08 11:45:17;;;;;;;15.53;9.40;;;13.20;99.90;;;;;;5036002;28;20168;-66
2021/11/08 11:47:44;;;;;;;14.47;9.40;;;13.30;99.90;;;;;;5053730;28;20560;-66
2021/11/08 11:50:11;;;;;;;12.30;7.93;;;13.30;99.90;;;;;;5035255;28;20185;-66
2021/11/08 11:52:42;;;;;;;10.23;7.53;;;13.20;99.90;;;;;;5049342;28;20522;-66
2021/11/08 11:55:09;;;;;;;10.87;8.83;;;13.10;99.90;;;;;;5033629;28;20171;-66
2021/11/08 11:57:34;;;;;;;10.00;7.50;;;13.10;99.90;;;;;;5032897;28;20207;-66
2021/11/08 12:00:01;;;;;;;8.63;6.97;;;13.00;99.90;;;;;;5051620;28;20236;-66
2021/11/08 12:02:27;;;;;;;8.40;7.57;;;12.80;99.90;;;;;;5053572;28;20586;-66
2021/11/08 12:04:53;;;;;;;11.17;7.83;;;12.70;99.90;;;;;;5053027;28;20171;-66
2021/11/08 12:07:18;;;;;;;11.67;6.53;;;12.70;99.90;;;;;;5053417;28;20243;-66
2021/11/08 12:09:44;;;;;;;9.60;6.93;;;12.70;99.90;;;;;;5034810;28;20183;-66
2021/11/08 12:12:22;;;;;;;9.37;7.10;;;12.60;99.90;;;;;;5035254;28;20653;-66
2021/11/08 12:15:07;;;;;;;8.13;6.17;;;12.60;99.90;;;;;;5053135;28;20623;-66
2021/11/08 12:17:38;;;;;;;10.07;9.07;;;12.60;99.90;;;;;;5053044;28;20206;-66
2021/11/08 12:20:08;;;;;;;14.50;7.53;;;12.70;99.90;;;;;;5034634;28;20171;-66
2021/11/08 12:22:34;;;;;;;9.40;6.87;;;12.80;99.90;;;;;;5053419;28;20623;-66
2021/11/08 12:25:17;;;;;;;7.33;6.73;;;12.80;99.90;;;;;;5052629;28;20501;-66
2021/11/08 12:28:08;;;;;;;11.73;7.83;;;12.80;99.90;;;;;;5052485;28;20198;-66
2021/11/08 12:30:39;;;;;;;12.13;7.80;;;12.70;99.90;;;;;;5052446;28;20290;-66
2021/11/08 12:33:21;;;;;;;7.77;6.87;;;12.80;99.90;;;;;;5051739;28;20348;-66
2021/11/08 12:35:47;;;;;;;11.00;6.87;;;12.80;99.90;;;;;;5052644;28;20199;-66
2021/11/08 12:38:21;;;;;;;11.27;7.00;;;12.80;99.90;;;;;;5052344;28;20347;-66
2021/11/08 12:40:48;;;;;;;9.70;7.03;;;13.00;99.90;;;;;;5052642;28;20166;-66
2021/11/08 12:43:29;;;;;;;7.90;6.30;;;13.00;99.90;;;;;;5034405;28;20589;-66
2021/11/08 12:45:55;;;;;;;10.43;7.40;;;12.90;99.90;;;;;;5052112;28;20167;-66
2021/11/08 12:48:21;;;;;;;10.23;7.47;;;12.80;99.90;;;;;;5052802;28;20686;-66
2021/11/08 12:50:53;;;;;;;10.37;6.93;;;12.60;99.90;;;;;;5034241;28;20706;-66
2021/11/08 12:53:31;;;;;;;11.47;6.83;;;12.80;99.90;;;;;;5032627;28;20183;-66
2021/11/08 12:56:00;;;;;;;12.10;7.00;;;12.60;99.90;;;;;;5040349;28;20206;-65
2021/11/08 12:58:34;;;;;;;10.10;6.67;;;12.40;99.90;;;;;;5033618;28;20710;-66
2021/11/08 13:01:01;;;;;;;9.17;6.60;;;12.30;99.90;;;;;;5051047;28;20720;-66
2021/11/08 13:03:35;;;;;;;10.73;7.00;;;12.20;99.90;;;;;;5052373;28;20525;-65
2021/11/08 13:06:04;;;;;;;8.70;6.77;;;12.30;99.90;;;;;;5034087;28;20267;-65
2021/11/08 13:08:31;;;;;;;8.47;6.73;;;12.40;99.90;;;;;;5051710;28;20194;-65
2021/11/08 13:10:58;;;;;;;9.77;6.10;;;12.40;99.90;;;;;;5033727;28;20183;-66
2021/11/08 13:13:25;;;;;;;7.07;6.60;;;12.50;99.90;;;;;;5052196;28;20185;-65
2021/11/08 13:15:50;;;;;;;13.77;8.03;;;12.50;99.90;;;;;;5051834;28;20205;-65
2021/11/08 13:18:18;;;;;;;6.67;6.07;;;12.50;99.90;;;;;;5034041;28;20195;-67
2021/11/08 13:20:48;;;;;;;11.50;6.70;;;12.60;99.90;;;;;;5051746;28;20178;-66
2021/11/08 13:23:18;;;;;;;8.20;6.70;;;12.60;99.90;;;;;;5052059;28;20167;-67
2021/11/08 13:25:50;;;;;;;13.47;7.10;;;12.70;99.90;;;;;;5051679;28;20539;-66
2021/11/08 13:28:20;;;;;;;7.93;7.03;;;12.80;99.90;;;;;;5051011;28;20198;-67
2021/11/08 13:30:55;;;;;;;7.27;6.13;;;12.80;99.90;;;;;;5051563;28;20214;-66
2021/11/08 13:33:24;;;;;;;10.17;6.93;;;12.90;99.90;;;;;;5033739;28;20175;-66
2021/11/08 13:35:50;;;;;;;7.43;6.73;;;12.80;99.90;;;;;;5051438;28;20713;-66
2021/11/08 13:38:20;;;;;;;14.90;7.37;;;12.80;99.90;;;;;;5051600;28;21076;-67
2021/11/08 13:40:49;;;;;;;10.17;6.67;;;12.80;99.90;;;;;;5051419;28;20159;-67
2021/11/08 13:43:21;;;;;;;8.93;6.60;;;12.80;99.90;;;;;;5033568;28;20175;-67
2021/11/08 13:45:51;;;;;;;12.43;7.10;;;12.80;99.90;;;;;;5051972;28;20438;-66
2021/11/08 13:48:24;;;;;;;7.50;6.80;;;12.80;99.90;;;;;;5051178;28;20186;-66
2021/11/08 13:50:52;;;;;;;13.10;7.50;;;12.80;99.90;;;;;;5051559;28;20159;-67
2021/11/08 13:53:25;;;;;;;8.63;6.90;;;12.80;99.90;;;;;;5051239;28;20174;-65
2021/11/08 13:55:58;;;;;;;7.57;6.10;;;12.90;99.90;;;;;;5033480;28;20289;-66
2021/11/08 13:58:24;;;;;;;9.30;7.00;;;12.90;99.90;;;;;;5051201;28;20203;-67
2021/11/08 14:00:50;;;;;;;7.03;6.30;;;13.00;99.90;;;;;;5051121;28;20224;-64
2021/11/08 14:03:17;;;;;;;7.93;7.07;;;13.00;99.90;;;;;;5051200;28;20643;-67
2021/11/08 14:05:50;;;;;;;7.60;6.70;;;13.00;99.90;;;;;;5033585;28;20269;-66
2021/11/08 14:08:24;;;;;;;11.63;6.67;;;12.90;99.90;;;;;;5050840;28;20186;-66
2021/11/08 14:10:59;;;;;;;9.73;6.63;;;13.00;99.90;;;;;;5051184;28;20175;-66
2021/11/08 14:13:36;;;;;;;8.37;6.50;;;12.90;99.90;;;;;;5051263;28;20198;-66
2021/11/08 14:16:08;;;;;;;8.33;7.50;;;12.80;99.90;;;;;;5051127;28;20198;-66
2021/11/08 14:18:34;;;;;;;9.17;6.93;;;12.70;99.90;;;;;;5051120;28;20184;-66
2021/11/08 14:21:14;;;;;;;10.90;7.03;;;12.70;99.90;;;;;;5053808;28;20175;-66
2021/11/08 14:23:41;;;;;;;11.00;6.77;;;12.60;99.90;;;;;;5055152;28;20170;-65
2021/11/08 14:26:16;;;;;;;9.03;6.50;;;12.60;99.90;;;;;;5055000;28;20521;-65
2021/11/08 14:28:44;;;;;;;7.70;6.77;;;12.70;99.90;;;;;;5037188;28;20178;-65
2021/11/08 14:31:16;;;;;;;8.37;7.10;;;12.70;99.90;;;;;;5054947;28;20604;-65
2021/11/08 14:33:42;;;;;;;9.23;7.90;;;12.70;99.90;;;;;;5054057;28;20179;-65
2021/11/08 14:36:28;;;;;;;7.67;6.87;;;12.80;99.90;;;;;;5054517;28;20264;-66
2021/11/08 14:39:05;;;;;;;14.50;7.50;;;12.80;99.90;;;;;;5055171;28;20163;-65